Time;durP1;ratioP1;P1;durP2;ratioP2;P2;SDS_P1;SDS_P2;PMS_P1;PMS_P2;Temp;Humidity;BMP_temperature;BMP_pressure;BME280_temperature;BME280_humidity;BME280_pressure;Samples;Min_cycle;Max_cycle;Signal;HPM_P1;HPM_P2
2022/03/20 00:01:37;;;;;;;8.80;3.00;;;;;5.40;102649.00;;;;10490421;28;20252;-78
2022/03/20 00:06:39;;;;;;;8.07;4.07;;;;;5.40;102634.00;;;;10490230;28;20570;-77
2022/03/20 00:11:41;;;;;;;8.30;3.47;;;;;5.30;102633.00;;;;10507410;28;20197;-78
2022/03/20 00:16:43;;;;;;;10.17;3.57;;;;;5.30;102608.00;;;;10489454;28;20242;-77
2022/03/20 00:21:45;;;;;;;7.33;4.50;;;;;5.20;102605.00;;;;10493429;28;20193;-77
2022/03/20 00:26:48;;;;;;;8.00;4.33;;;;;5.10;102599.00;;;;10514462;28;20547;-78
2022/03/20 00:31:50;;;;;;;7.83;4.83;;;;;5.10;102586.00;;;;10515010;28;20189;-77
2022/03/20 00:36:52;;;;;;;7.23;4.60;;;;;5.00;102585.00;;;;10513707;28;20235;-77
2022/03/20 00:41:55;;;;;;;10.40;5.50;;;;;5.00;102580.00;;;;10514478;28;20200;-77
2022/03/20 00:46:57;;;;;;;9.40;5.90;;;;;4.90;102569.00;;;;10514077;28;20193;-77
2022/03/20 00:51:59;;;;;;;9.40;5.73;;;;;4.90;102553.00;;;;10513068;28;20220;-77
2022/03/20 00:57:01;;;;;;;11.07;5.60;;;;;4.80;102549.00;;;;10493545;28;20188;-77
2022/03/20 01:02:04;;;;;;;10.20;6.47;;;;;4.60;102536.00;;;;10513583;28;20200;-77
2022/03/20 01:07:07;;;;;;;10.57;6.67;;;;;4.50;102529.00;;;;10481893;28;20202;-77
2022/03/20 01:12:09;;;;;;;12.83;7.10;;;;;4.40;102516.00;;;;10470981;28;20182;-77
2022/03/20 01:17:11;;;;;;;11.10;6.50;;;;;4.30;102510.00;;;;10470561;28;20228;-78
2022/03/20 01:22:13;;;;;;;10.53;7.10;;;;;4.20;102508.00;;;;10487177;28;20252;-77
2022/03/20 01:27:16;;;;;;;9.87;6.73;;;;;4.10;102492.00;;;;10534839;28;20246;-77
2022/03/20 01:32:18;;;;;;;12.67;6.20;;;;;4.10;102487.00;;;;10494501;28;20185;-78
2022/03/20 01:37:20;;;;;;;9.87;6.30;;;;;4.10;102485.00;;;;10536791;28;20224;-77
2022/03/20 01:42:22;;;;;;;12.20;6.00;;;;;4.10;102465.00;;;;10519790;28;20285;-77
2022/03/20 01:47:24;;;;;;;8.37;6.00;;;;;4.10;102457.00;;;;10552611;28;20192;-77
2022/03/20 01:52:26;;;;;;;15.57;7.53;;;;;4.00;102447.00;;;;10526353;28;20193;-77
2022/03/20 01:57:36;;;;;;;13.90;6.67;;;;;4.00;102448.00;;;;10518740;28;20192;-77
2022/03/20 02:02:38;;;;;;;11.50;5.97;;;;;3.90;102434.00;;;;10535842;28;20212;-77
2022/03/20 02:07:41;;;;;;;13.73;6.30;;;;;3.90;102436.00;;;;10532797;28;20198;-77
2022/03/20 02:12:43;;;;;;;12.93;6.70;;;;;3.90;102417.00;;;;10509727;28;20193;-77
2022/03/20 02:17:45;;;;;;;13.60;7.23;;;;;3.80;102411.00;;;;10526968;28;20193;-77
2022/03/20 02:22:47;;;;;;;13.83;7.50;;;;;3.80;102398.00;;;;10526615;28;20209;-77
2022/03/20 02:27:49;;;;;;;15.50;8.70;;;;;3.70;102391.00;;;;10526090;28;20196;-77
2022/03/20 02:32:52;;;;;;;11.87;7.53;;;;;3.70;102383.00;;;;10509872;28;20200;-77
2022/03/20 02:37:54;;;;;;;15.00;7.60;;;;;3.60;102383.00;;;;10509357;28;20319;-78
2022/03/20 02:42:57;;;;;;;16.57;8.70;;;;;3.50;102377.00;;;;10509183;28;20205;-77
2022/03/20 02:48:00;;;;;;;13.47;7.93;;;;;3.50;102378.00;;;;10491509;28;20678;-77
2022/03/20 02:53:13;;;;;;;15.73;8.53;;;;;3.50;102365.00;;;;10503506;28;20252;-77
2022/03/20 02:58:17;;;;;;;12.43;8.03;;;;;3.40;102364.00;;;;10507834;28;20193;-77
2022/03/20 03:03:19;;;;;;;13.83;8.10;;;;;3.30;102360.00;;;;10508187;28;20675;-77
2022/03/20 03:13:41;;;;;;;14.10;8.57;;;;;3.20;102345.00;;;;10465447;28;20217;-77
2022/03/20 03:18:47;;;;;;;15.27;8.57;;;;;3.10;102337.00;;;;10492615;28;20276;-77
2022/03/20 03:23:49;;;;;;;12.27;7.20;;;;;3.10;102332.00;;;;10490528;28;20201;-77
2022/03/20 03:28:51;;;;;;;12.67;7.60;;;;;3.10;102333.00;;;;10523995;28;20546;-77
2022/03/20 03:39:14;;;;;;;13.83;7.17;;;;;3.20;102315.00;;;;10507036;28;20254;-77
2022/03/20 03:44:17;;;;;;;11.20;7.27;;;;;3.30;102311.00;;;;10506334;28;20208;-77
2022/03/20 03:49:20;;;;;;;12.77;7.77;;;;;3.40;102307.00;;;;10523096;28;20188;-77
2022/03/20 03:54:22;;;;;;;12.37;8.57;;;;;3.60;102298.00;;;;10505205;28;20185;-77
2022/03/20 03:59:24;;;;;;;16.10;8.77;;;;;3.70;102298.00;;;;10504672;28;20189;-77
2022/03/20 04:04:27;;;;;;;12.20;8.33;;;;;3.70;102308.00;;;;10515218;28;20674;-77
2022/03/20 04:09:30;;;;;;;15.57;9.80;;;;;3.60;102305.00;;;;10525296;28;20220;-78
2022/03/20 04:14:33;;;;;;;22.33;10.90;;;;;3.50;102301.00;;;;10489298;28;20185;-77
2022/03/20 04:19:35;;;;;;;14.07;9.63;;;;;3.40;102286.00;;;;10505969;28;20211;-77
2022/03/20 04:24:37;;;;;;;23.13;12.47;;;;;3.30;102290.00;;;;10489018;28;20205;-77
2022/03/20 04:29:39;;;;;;;19.20;12.57;;;;;3.30;102288.00;;;;10488616;28;20246;-77
2022/03/20 04:34:41;;;;;;;18.67;12.57;;;;;3.30;102271.00;;;;10521503;28;20200;-77
2022/03/20 04:39:43;;;;;;;18.07;12.90;;;;;3.50;102280.00;;;;10448774;28;20186;-77
2022/03/20 04:44:46;;;;;;;20.67;13.03;;;;;3.60;102281.00;;;;10480299;28;20224;-77
2022/03/20 05:00:29;;;;;;;22.23;14.17;;;;;3.80;102266.00;;;;10522117;28;20242;-77
2022/03/20 05:05:31;;;;;;;20.03;13.90;;;;;3.80;102260.00;;;;10469884;28;20280;-77
2022/03/20 05:15:57;;;;;;;23.97;14.60;;;;;3.80;102248.00;;;;10554174;28;20298;-77
2022/03/20 05:20:59;;;;;;;25.57;14.40;;;;;3.70;102236.00;;;;10508971;28;20196;-77
2022/03/20 05:26:01;;;;;;;22.87;14.83;;;;;3.70;102239.00;;;;10495248;28;20240;-77
2022/03/20 05:31:03;;;;;;;23.03;15.10;;;;;3.70;102228.00;;;;10478209;28;20246;-77
2022/03/20 05:36:05;;;;;;;21.97;15.40;;;;;3.80;102228.00;;;;10494821;28;20327;-77
2022/03/20 05:46:28;;;;;;;22.77;15.00;;;;;3.90;102226.00;;;;10511727;28;20213;-77
2022/03/20 05:51:31;;;;;;;29.10;16.63;;;;;4.00;102223.00;;;;10510445;28;20193;-77
2022/03/20 06:01:54;;;;;;;21.87;15.83;;;;;4.10;102208.00;;;;10510272;28;20242;-77
2022/03/20 06:06:58;;;;;;;25.77;17.63;;;;;4.20;102209.00;;;;10497044;28;20220;-77
2022/03/20 06:11:59;;;;;;;23.50;16.30;;;;;4.20;102206.00;;;;10509741;28;20217;-77
2022/03/20 06:17:05;;;;;;;30.73;17.50;;;;;4.20;102202.00;;;;10476862;28;20610;-77
2022/03/20 06:22:07;;;;;;;27.63;18.47;;;;;4.10;102195.00;;;;10525956;28;20215;-77
2022/03/20 06:27:09;;;;;;;33.10;20.37;;;;;4.10;102200.00;;;;10509694;28;20259;-77
2022/03/20 06:32:11;;;;;;;28.83;19.40;;;;;4.10;102192.00;;;;10475484;28;20406;-77
2022/03/20 06:37:13;;;;;;;26.50;19.77;;;;;4.10;102197.00;;;;10474039;28;20232;-78
2022/03/20 06:42:15;;;;;;;34.07;20.90;;;;;4.10;102213.00;;;;10468240;28;20193;-77
2022/03/20 06:47:18;;;;;;;28.77;22.63;;;;;4.00;102221.00;;;;10437712;28;20248;-78
2022/03/20 06:52:22;;;;;;;30.03;20.87;;;;;3.60;102208.00;;;;10519012;28;20246;-79
2022/03/20 06:57:26;;;;;;;38.67;21.97;;;;;3.20;102203.00;;;;10476472;28;20586;-80
2022/03/20 07:02:28;;;;;;;37.80;24.00;;;;;3.10;102193.00;;;;10492742;28;20192;-79
2022/03/20 07:07:30;;;;;;;37.83;26.07;;;;;3.00;102191.00;;;;10475278;28;20221;-80
2022/03/20 07:12:32;;;;;;;39.17;24.97;;;;;2.90;102193.00;;;;10491595;28;20238;-79
2022/03/20 07:17:36;;;;;;;37.93;25.97;;;;;2.80;102192.00;;;;10491420;28;20243;-81
2022/03/20 07:22:38;;;;;;;41.13;26.63;;;;;2.60;102197.00;;;;10491807;28;20200;-81
2022/03/20 07:33:00;;;;;;;48.93;32.17;;;;;1.80;102195.00;;;;10471167;28;20201;-84
2022/03/20 07:38:02;;;;;;;58.00;34.33;;;;;1.80;102177.00;;;;10520140;28;20298;-84
2022/03/20 07:43:04;;;;;;;48.57;34.20;;;;;2.00;102175.00;;;;10506239;28;20674;-82
2022/03/20 07:48:11;;;;;;;48.60;30.50;;;;;2.00;102174.00;;;;10473057;28;20301;-79
2022/03/20 07:53:17;;;;;;;46.67;31.83;;;;;1.80;102172.00;;;;10489590;28;20196;-77
2022/03/20 07:58:20;;;;;;;46.33;31.13;;;;;1.80;102164.00;;;;10485917;28;20193;-78
2022/03/20 08:03:22;;;;;;;49.30;30.63;;;;;2.10;102158.00;;;;10482170;28;20243;-79
2022/03/20 08:08:24;;;;;;;48.80;32.23;;;;;2.50;102158.00;;;;10472500;28;20250;-79
2022/03/20 08:13:27;;;;;;;49.57;32.93;;;;;3.30;102153.00;;;;10488888;28;20184;-81
2022/03/20 08:18:29;;;;;;;51.67;34.30;;;;;3.40;102153.00;;;;10472699;28;20192;-82
2022/03/20 08:23:31;;;;;;;48.97;32.47;;;;;3.90;102137.00;;;;10473010;28;20270;-81
2022/03/20 08:28:35;;;;;;;54.03;35.20;;;;;4.50;102138.00;;;;10504856;28;20200;-80
2022/03/20 08:33:37;;;;;;;62.47;37.33;;;;;5.80;102140.00;;;;10504047;28;20196;-78
2022/03/20 08:38:39;;;;;;;49.80;32.63;;;;;5.80;102138.00;;;;10504700;28;20686;-78
2022/03/20 08:43:41;;;;;;;45.33;30.60;;;;;5.10;102129.00;;;;10493457;28;20208;-78
2022/03/20 08:48:43;;;;;;;47.67;32.30;;;;;5.50;102130.00;;;;10496486;28;20189;-78
2022/03/20 08:53:45;;;;;;;52.83;37.03;;;;;7.60;102116.00;;;;10487500;28;20197;-78
2022/03/20 08:58:48;;;;;;;48.27;35.13;;;;;8.30;102121.00;;;;10455415;28;20197;-78
2022/03/20 09:03:55;;;;;;;42.87;29.03;;;;;8.40;102114.00;;;;10443736;28;20686;-78
2022/03/20 09:08:57;;;;;;;38.33;28.73;;;;;8.90;102109.00;;;;10488956;28;20210;-78
2022/03/20 09:13:59;;;;;;;33.73;26.27;;;;;9.40;102115.00;;;;10504298;28;20220;-78
2022/03/20 09:19:03;;;;;;;31.93;25.80;;;;;9.10;102112.00;;;;10512553;28;20185;-78
2022/03/20 09:24:06;;;;;;;33.50;26.80;;;;;9.10;102110.00;;;;10475173;28;20223;-78
2022/03/20 09:29:08;;;;;;;36.00;25.87;;;;;9.60;102106.00;;;;10495650;28;20219;-78
2022/03/20 09:34:10;;;;;;;33.10;24.53;;;;;9.90;102115.00;;;;10484739;28;20188;-78
2022/03/20 09:39:12;;;;;;;31.30;24.47;;;;;10.20;102109.00;;;;10506636;28;20707;-78
2022/03/20 09:44:17;;;;;;;28.57;23.83;;;;;10.10;102102.00;;;;10470178;28;20672;-78
2022/03/20 09:49:22;;;;;;;29.73;24.20;;;;;10.60;102102.00;;;;10527950;28;20231;-78
2022/03/20 09:54:24;;;;;;;37.90;25.07;;;;;10.80;102091.00;;;;10540191;28;20200;-78
2022/03/20 09:59:26;;;;;;;31.67;23.90;;;;;11.00;102092.00;;;;10493188;28;20667;-77
2022/03/20 10:04:28;;;;;;;30.00;23.50;;;;;11.00;102080.00;;;;10508763;28;20216;-76
2022/03/20 10:09:30;;;;;;;31.47;23.97;;;;;11.10;102071.00;;;;10485096;28;20271;-76
2022/03/20 10:14:32;;;;;;;28.60;22.77;;;;;11.70;102085.00;;;;10492568;28;20192;-79
2022/03/20 10:19:34;;;;;;;30.63;23.93;;;;;11.90;102075.00;;;;10492516;28;20197;-76
2022/03/20 10:24:38;;;;;;;31.57;24.03;;;;;12.00;102079.00;;;;10522731;28;20208;-77
2022/03/20 10:29:52;;;;;;;29.53;23.80;;;;;12.00;102082.00;;;;10468000;28;20252;-78
2022/03/20 10:34:57;;;;;;;30.37;24.37;;;;;12.40;102082.00;;;;10501211;28;20253;-77
2022/03/20 10:40:11;;;;;;;31.30;21.93;;;;;12.70;102085.00;;;;10483653;28;20198;-76
2022/03/20 10:45:13;;;;;;;30.70;23.33;;;;;13.10;102080.00;;;;10499951;28;20211;-77
2022/03/20 10:50:15;;;;;;;26.27;22.17;;;;;13.20;102073.00;;;;10507322;28;20196;-76
2022/03/20 10:55:19;;;;;;;33.27;23.50;;;;;13.40;102085.00;;;;10498410;28;20198;-77
2022/03/20 11:00:21;;;;;;;29.77;22.87;;;;;13.40;102084.00;;;;10500766;28;20256;-78
2022/03/20 11:05:24;;;;;;;32.13;23.33;;;;;13.90;102075.00;;;;10512792;28;20210;-77
2022/03/20 11:10:25;;;;;;;26.17;22.47;;;;;14.20;102079.00;;;;10515161;28;20228;-77
2022/03/20 11:15:28;;;;;;;26.57;22.10;;;;;14.60;102077.00;;;;10517889;28;20231;-76
2022/03/20 11:20:35;;;;;;;29.03;22.27;;;;;14.80;102072.00;;;;10500092;28;20224;-76
2022/03/20 11:25:45;;;;;;;30.13;22.30;;;;;15.00;102082.00;;;;10518685;28;20208;-76
2022/03/20 11:30:47;;;;;;;27.90;22.27;;;;;13.70;102069.00;;;;10489152;28;20205;-77
2022/03/20 11:35:49;;;;;;;31.07;22.60;;;;;15.40;102074.00;;;;10526083;28;20227;-77
2022/03/20 11:41:12;;;;;;;29.30;23.37;;;;;16.00;102085.00;;;;10564225;28;20658;-76
2022/03/20 11:46:34;;;;;;;25.10;21.70;;;;;14.50;102083.00;;;;10535217;28;20239;-76
2022/03/20 11:52:03;;;;;;;29.77;22.87;;;;;13.70;102087.00;;;;10530328;28;20197;-76
2022/03/20 11:57:23;;;;;;;32.77;25.50;;;;;12.50;102093.00;;;;10520553;28;20208;-76
2022/03/20 12:02:34;;;;;;;30.73;23.63;;;;;11.60;102095.00;;;;10488327;28;20189;-78
2022/03/20 12:07:55;;;;;;;29.20;24.23;;;;;10.90;102096.00;;;;10479994;28;20224;-78
2022/03/20 12:13:36;;;;;;;29.50;23.60;;;;;10.70;102096.00;;;;10479832;28;20197;-76
2022/03/20 12:19:05;;;;;;;30.67;23.60;;;;;10.60;102092.00;;;;10477851;28;20292;-76
2022/03/20 12:24:36;;;;;;;31.37;25.30;;;;;10.90;102085.00;;;;10483219;28;20263;-77
2022/03/20 12:29:38;;;;;;;30.30;23.77;;;;;11.70;102091.00;;;;10487778;28;20197;-76
2022/03/20 12:34:45;;;;;;;31.40;23.07;;;;;12.00;102084.00;;;;10476723;28;20192;-77
2022/03/20 12:39:48;;;;;;;28.53;23.03;;;;;13.10;102079.00;;;;10505934;28;20213;-76
2022/03/20 12:44:52;;;;;;;28.23;23.87;;;;;13.90;102074.00;;;;10514782;28;20213;-77
2022/03/20 12:50:09;;;;;;;27.90;23.53;;;;;15.00;102084.00;;;;10470414;28;20243;-76
2022/03/20 12:55:11;;;;;;;29.03;24.10;;;;;15.40;102082.00;;;;10492147;28;20184;-76
2022/03/20 13:00:25;;;;;;;27.07;22.60;;;;;15.70;102081.00;;;;10494822;28;20193;-76
2022/03/20 13:05:30;;;;;;;31.20;25.40;;;;;16.70;102077.00;;;;10511267;28;20675;-76
2022/03/20 13:10:39;;;;;;;29.20;24.03;;;;;15.90;102091.00;;;;10527692;28;20181;-76
2022/03/20 13:15:50;;;;;;;28.13;23.97;;;;;15.50;102086.00;;;;10510876;28;20727;-76
2022/03/20 13:20:52;;;;;;;32.93;26.07;;;;;14.90;102088.00;;;;10494339;28;20204;-76
2022/03/20 13:26:00;;;;;;;30.63;26.03;;;;;14.40;102088.00;;;;10494336;28;20211;-76
2022/03/20 13:31:11;;;;;;;26.73;23.67;;;;;14.40;102090.00;;;;10521218;28;20237;-76
2022/03/20 13:36:14;;;;;;;32.53;25.13;;;;;14.30;102094.00;;;;10537030;28;20295;-76
2022/03/20 13:41:18;;;;;;;35.10;25.00;;;;;15.00;102082.00;;;;10527258;28;20292;-77
2022/03/20 13:46:29;;;;;;;36.80;27.57;;;;;15.60;102092.00;;;;10479716;28;20212;-76
2022/03/20 13:51:32;;;;;;;29.83;25.17;;;;;16.20;102083.00;;;;10494844;28;20202;-76
2022/03/20 13:56:34;;;;;;;30.67;26.40;;;;;17.20;102088.00;;;;10548414;28;20243;-77
2022/03/20 14:01:45;;;;;;;26.33;23.40;;;;;15.20;102097.00;;;;10509615;28;20589;-76
2022/03/20 14:06:54;;;;;;;31.77;25.87;;;;;15.00;102086.00;;;;10509129;28;20197;-77
2022/03/20 14:11:56;;;;;;;30.87;26.27;;;;;16.20;102065.00;;;;10492947;28;20542;-77
2022/03/20 14:17:00;;;;;;;31.20;27.80;;;;;19.30;102046.00;;;;10509317;28;20239;-77
2022/03/20 14:22:03;;;;;;;30.50;26.97;;;;;19.00;102070.00;;;;10463504;28;20192;-77
2022/03/20 14:27:05;;;;;;;28.60;25.13;;;;;18.00;102039.00;;;;10490480;28;20202;-76
2022/03/20 14:42:53;;;;;;;29.30;24.37;;;;;19.40;102044.00;;;;10508108;28;20181;-77
2022/03/20 14:47:56;;;;;;;29.00;24.40;;;;;17.50;102062.00;;;;10523359;28;20300;-79
2022/03/20 14:52:58;;;;;;;28.60;25.50;;;;;14.90;102103.00;;;;10498350;28;20181;-76
2022/03/20 14:58:02;;;;;;;32.00;25.13;;;;;15.40;102070.00;;;;10470834;28;20232;-76
2022/03/20 15:03:04;;;;;;;28.47;24.37;;;;;17.20;102077.00;;;;10512843;28;20203;-77
2022/03/20 15:13:27;;;;;;;29.47;24.17;;;;;17.60;102055.00;;;;10522735;28;20199;-77
2022/03/20 15:18:29;;;;;;;32.80;26.23;;;;;16.30;102086.00;;;;10472643;28;20200;-77
2022/03/20 15:23:31;;;;;;;31.77;28.37;;;;;15.40;102077.00;;;;10518810;28;20278;-77
2022/03/20 15:28:33;;;;;;;32.47;25.87;;;;;15.50;102093.00;;;;10450942;28;20698;-77
2022/03/20 15:33:39;;;;;;;32.20;27.07;;;;;15.90;102097.00;;;;10467266;28;20186;-77
2022/03/20 15:38:42;;;;;;;32.73;27.17;;;;;16.00;102105.00;;;;10488755;28;20217;-77
2022/03/20 15:43:45;;;;;;;31.97;27.17;;;;;14.80;102110.00;;;;10522857;28;20242;-77
2022/03/20 15:48:48;;;;;;;29.60;25.57;;;;;14.10;102110.00;;;;10489145;28;20678;-77
2022/03/20 15:53:50;;;;;;;29.97;24.33;;;;;13.60;102114.00;;;;10504894;28;20215;-77
2022/03/20 15:58:53;;;;;;;30.50;23.87;;;;;12.80;102122.00;;;;10488390;28;20192;-77
2022/03/20 16:03:55;;;;;;;34.50;26.50;;;;;11.90;102122.00;;;;10526810;28;20203;-77
2022/03/20 16:08:57;;;;;;;40.23;29.20;;;;;11.50;102118.00;;;;10530519;28;20242;-77
2022/03/20 16:14:19;;;;;;;29.93;25.43;;;;;11.00;102130.00;;;;10546823;28;20955;-77
2022/03/20 16:19:21;;;;;;;30.73;24.67;;;;;10.80;102134.00;;;;10521023;28;20263;-77
2022/03/20 16:29:44;;;;;;;31.30;24.87;;;;;10.50;102142.00;;;;10536758;28;20192;-78
2022/03/20 16:34:48;;;;;;;30.40;24.27;;;;;10.30;102139.00;;;;10504077;28;20649;-77
2022/03/20 16:39:50;;;;;;;32.37;24.63;;;;;10.10;102153.00;;;;10504391;28;20239;-78
2022/03/20 16:44:57;;;;;;;34.03;26.07;;;;;9.90;102154.00;;;;10487595;28;20200;-77
2022/03/20 16:50:06;;;;;;;37.63;26.20;;;;;9.70;102158.00;;;;10487920;28;20204;-77
2022/03/20 16:55:09;;;;;;;31.30;23.63;;;;;9.50;102167.00;;;;10504396;28;20193;-77
2022/03/20 17:00:12;;;;;;;38.30;28.47;;;;;9.30;102163.00;;;;10520411;28;20196;-77
2022/03/20 17:05:13;;;;;;;34.83;25.90;;;;;9.10;102170.00;;;;10476615;28;20216;-79
2022/03/20 17:10:16;;;;;;;36.23;26.23;;;;;8.90;102166.00;;;;10478868;28;20677;-77
2022/03/20 17:15:19;;;;;;;33.60;26.73;;;;;8.60;102176.00;;;;10484326;28;20605;-77
2022/03/20 17:20:20;;;;;;;36.97;25.47;;;;;8.50;102177.00;;;;10519724;28;20196;-77
2022/03/20 17:25:25;;;;;;;32.00;24.17;;;;;8.30;102174.00;;;;10510246;28;20209;-77
2022/03/20 17:30:27;;;;;;;34.03;25.30;;;;;8.10;102179.00;;;;10536768;28;20716;-78
2022/03/20 17:35:30;;;;;;;35.87;26.27;;;;;7.80;102190.00;;;;10528596;28;20243;-77
2022/03/20 17:40:32;;;;;;;36.97;27.60;;;;;7.50;102187.00;;;;10548326;28;20200;-77
2022/03/20 17:45:38;;;;;;;36.50;27.07;;;;;7.20;102191.00;;;;10493918;28;20667;-77
2022/03/20 17:50:41;;;;;;;38.20;28.77;;;;;6.90;102191.00;;;;10515690;28;20246;-77
2022/03/20 17:55:46;;;;;;;40.47;28.20;;;;;6.60;102191.00;;;;10494101;28;20234;-77
2022/03/20 18:00:48;;;;;;;41.00;27.93;;;;;6.30;102195.00;;;;10526940;28;20199;-78
2022/03/20 18:11:14;;;;;;;38.87;28.73;;;;;5.90;102202.00;;;;10551619;28;20188;-77
2022/03/20 18:16:16;;;;;;;39.57;29.23;;;;;5.70;102211.00;;;;10517500;28;20330;-77
2022/03/20 18:21:18;;;;;;;39.70;29.97;;;;;5.50;102206.00;;;;10518230;28;20192;-77
2022/03/20 18:26:20;;;;;;;46.30;29.73;;;;;5.30;102207.00;;;;10534445;28;20291;-77
2022/03/20 18:31:22;;;;;;;45.60;32.67;;;;;5.20;102217.00;;;;10455610;28;20671;-77
2022/03/20 18:36:25;;;;;;;51.67;33.20;;;;;5.00;102211.00;;;;10450312;28;20762;-77
2022/03/20 18:41:28;;;;;;;50.07;35.10;;;;;4.90;102223.00;;;;10450696;28;20202;-77
2022/03/20 18:46:30;;;;;;;51.43;34.50;;;;;4.80;102232.00;;;;10466260;28;20206;-78
2022/03/20 18:51:32;;;;;;;55.90;35.90;;;;;4.70;102242.00;;;;10466143;28;20247;-78
2022/03/20 18:56:35;;;;;;;49.97;33.90;;;;;4.60;102247.00;;;;10468594;28;20671;-77
2022/03/20 19:01:37;;;;;;;44.87;34.07;;;;;4.50;102259.00;;;;10493376;28;20194;-77
2022/03/20 19:06:41;;;;;;;44.00;33.20;;;;;4.30;102258.00;;;;10448562;28;20241;-77
2022/03/20 19:11:43;;;;;;;54.17;37.10;;;;;4.20;102257.00;;;;10448831;28;20236;-77
2022/03/20 19:16:45;;;;;;;59.00;39.10;;;;;4.10;102261.00;;;;10482069;28;20909;-77
2022/03/20 19:21:48;;;;;;;58.83;39.30;;;;;3.90;102260.00;;;;10448572;28;20186;-77
2022/03/20 19:26:50;;;;;;;60.43;40.23;;;;;3.90;102262.00;;;;10502023;28;20453;-77
2022/03/20 19:31:52;;;;;;;59.53;38.37;;;;;3.80;102279.00;;;;10517779;28;20238;-76
2022/03/20 19:42:15;;;;;;;52.73;35.20;;;;;3.70;102283.00;;;;10505597;28;20280;-77
2022/03/20 19:47:17;;;;;;;50.40;34.43;;;;;3.60;102289.00;;;;10505672;28;20213;-78
2022/03/20 19:52:22;;;;;;;50.73;33.73;;;;;3.40;102283.00;;;;10489462;28;20258;-78
2022/03/20 19:57:25;;;;;;;49.60;35.23;;;;;3.30;102298.00;;;;10482442;28;20228;-78
2022/03/20 20:02:28;;;;;;;54.93;36.30;;;;;3.30;102296.00;;;;10505642;28;20200;-78
2022/03/20 20:07:30;;;;;;;48.00;34.53;;;;;3.20;102290.00;;;;10473611;28;20240;-79
2022/03/20 20:12:32;;;;;;;56.87;37.43;;;;;3.20;102296.00;;;;10507224;28;20285;-78
2022/03/20 20:17:34;;;;;;;59.27;39.03;;;;;3.10;102309.00;;;;10478950;28;20193;-78
2022/03/20 20:22:40;;;;;;;58.50;37.20;;;;;3.00;102315.00;;;;10515278;28;20202;-78
2022/03/20 20:27:42;;;;;;;56.70;38.30;;;;;3.00;102306.00;;;;10476204;28;20697;-78
2022/03/20 20:32:44;;;;;;;57.83;38.23;;;;;2.90;102307.00;;;;10491080;28;20199;-79
2022/03/20 20:37:46;;;;;;;57.83;39.97;;;;;2.80;102318.00;;;;10480922;28;20213;-78
2022/03/20 20:42:48;;;;;;;57.13;37.80;;;;;2.70;102317.00;;;;10487190;28;20639;-78
2022/03/20 20:47:50;;;;;;;58.73;38.20;;;;;2.60;102307.00;;;;10512685;28;20204;-78
2022/03/20 20:52:52;;;;;;;57.63;37.40;;;;;2.60;102321.00;;;;10498834;28;20231;-79
2022/03/20 20:57:54;;;;;;;67.80;42.03;;;;;2.60;102321.00;;;;10510857;28;20185;-79
2022/03/20 21:02:56;;;;;;;69.77;42.70;;;;;2.60;102323.00;;;;10506018;28;20234;-80
2022/03/20 21:13:18;;;;;;;62.07;40.73;;;;;2.50;102335.00;;;;10526836;28;20201;-78
2022/03/20 21:18:21;;;;;;;68.37;41.50;;;;;2.40;102337.00;;;;10492059;28;20193;-79
2022/03/20 21:23:23;;;;;;;67.87;43.10;;;;;2.40;102338.00;;;;10516120;28;20196;-79
2022/03/20 21:28:26;;;;;;;66.60;43.83;;;;;2.30;102349.00;;;;10506663;28;20752;-79
2022/03/20 21:33:28;;;;;;;66.17;43.97;;;;;2.30;102354.00;;;;10501249;28;20193;-79
2022/03/20 21:38:30;;;;;;;70.17;44.37;;;;;2.50;102355.00;;;;10476556;28;20221;-78
2022/03/20 21:43:32;;;;;;;67.13;43.00;;;;;2.80;102351.00;;;;10492773;28;20251;-79
2022/03/20 21:48:35;;;;;;;63.03;41.67;;;;;3.00;102361.00;;;;10491151;28;20804;-79
2022/03/20 21:53:45;;;;;;;60.63;39.37;;;;;3.00;102364.00;;;;10509309;28;20189;-78
2022/03/20 21:58:48;;;;;;;63.93;39.60;;;;;3.00;102357.00;;;;10485023;28;20200;-79
2022/03/20 22:03:50;;;;;;;54.90;37.30;;;;;3.00;102365.00;;;;10492728;28;20224;-79
2022/03/20 22:08:52;;;;;;;55.17;38.33;;;;;3.00;102370.00;;;;10448005;28;20236;-79
2022/03/20 22:13:54;;;;;;;58.63;39.03;;;;;3.00;102367.00;;;;10503510;28;20193;-79
2022/03/20 22:18:56;;;;;;;56.67;37.23;;;;;3.10;102362.00;;;;10474830;28;20181;-79
2022/03/20 22:23:58;;;;;;;52.27;34.93;;;;;3.10;102369.00;;;;10491013;28;20280;-79
2022/03/20 22:29:00;;;;;;;50.47;34.80;;;;;3.20;102361.00;;;;10502964;28;20250;-79
2022/03/20 22:34:02;;;;;;;55.53;36.03;;;;;3.30;102361.00;;;;10483195;28;20193;-78
2022/03/20 22:39:07;;;;;;;56.00;36.33;;;;;3.30;102359.00;;;;10503500;28;20221;-78
2022/03/20 22:44:09;;;;;;;54.03;36.67;;;;;3.30;102353.00;;;;10490888;28;20231;-78
2022/03/20 22:54:32;;;;;;;57.97;36.50;;;;;3.40;102361.00;;;;10517537;28;20191;-78
2022/03/20 22:59:34;;;;;;;57.10;36.53;;;;;3.40;102353.00;;;;10532363;28;20212;-79
2022/03/20 23:04:36;;;;;;;55.87;37.63;;;;;3.40;102359.00;;;;10495570;28;20204;-78
2022/03/20 23:09:37;;;;;;;58.63;37.60;;;;;3.30;102371.00;;;;10486475;28;20199;-78
2022/03/20 23:14:43;;;;;;;58.93;37.20;;;;;3.30;102359.00;;;;10529611;28;20216;-78
2022/03/20 23:19:45;;;;;;;54.03;36.50;;;;;3.20;102356.00;;;;10532404;28;20195;-78
2022/03/20 23:24:47;;;;;;;57.27;37.03;;;;;3.20;102354.00;;;;10467948;28;20188;-78
2022/03/20 23:29:49;;;;;;;57.73;37.07;;;;;3.30;102358.00;;;;10516599;28;20209;-78
2022/03/20 23:34:52;;;;;;;57.17;39.10;;;;;3.30;102366.00;;;;10497559;28;20200;-78
2022/03/20 23:39:54;;;;;;;58.73;39.33;;;;;3.30;102361.00;;;;10531182;28;20884;-78
2022/03/20 23:44:56;;;;;;;59.03;39.10;;;;;3.40;102357.00;;;;10546098;28;20254;-78
2022/03/20 23:49:58;;;;;;;65.73;41.63;;;;;3.40;102355.00;;;;10505541;28;20204;-78
2022/03/20 23:55:00;;;;;;;59.73;39.73;;;;;3.50;102359.00;;;;10504660;28;20193;-78
